Time;durP1;ratioP1;P1;durP2;ratioP2;P2;SDS_P1;SDS_P2;PMS_P1;PMS_P2;Temp;Humidity;BMP_temperature;BMP_pressure;BME280_temperature;BME280_humidity;BME280_pressure;Samples;Min_cycle;Max_cycle;Signal;HPM_P1;HPM_P2
2022/06/08 00:01:33;;;;;;;;;;;15.80;99.90;;;;;;5113753;28;19951;-78
2022/06/08 00:04:00;;;;;;;;;;;15.80;99.90;;;;;;5113237;28;19954;-78
2022/06/08 00:06:26;;;;;;;;;;;15.80;99.90;;;;;;5113261;28;19908;-78
2022/06/08 00:08:51;;;;;;;;;;;15.70;99.90;;;;;;5094890;28;19998;-78
2022/06/08 00:11:18;;;;;;;;;;;15.70;99.90;;;;;;5113367;28;19912;-78
2022/06/08 00:13:44;;;;;;;;;;;15.70;99.90;;;;;;5113294;28;20017;-79
2022/06/08 00:16:10;;;;;;;;;;;15.60;99.90;;;;;;5113145;28;20430;-78
2022/06/08 00:18:36;;;;;;;;;;;15.60;99.90;;;;;;5112940;28;19966;-78
2022/06/08 00:21:01;;;;;;;;;;;15.60;99.90;;;;;;5112882;28;20343;-78
2022/06/08 00:23:27;;;;;;;;;;;15.60;99.90;;;;;;5113076;28;20002;-78
2022/06/08 00:25:53;;;;;;;;;;;15.60;99.90;;;;;;5113049;28;20036;-78
2022/06/08 00:28:18;;;;;;;;;;;15.50;99.90;;;;;;5112883;28;19918;-78
2022/06/08 00:30:44;;;;;;;;;;;15.60;99.90;;;;;;5112791;28;19962;-78
2022/06/08 00:33:10;;;;;;;;;;;15.60;99.90;;;;;;5094718;28;19908;-78
2022/06/08 00:35:35;;;;;;;;;;;15.40;99.90;;;;;;5112833;28;20358;-78
2022/06/08 00:38:01;;;;;;;;;;;15.50;99.90;;;;;;5112673;28;19915;-78
2022/06/08 00:40:31;;;;;;;;;;;15.50;99.90;;;;;;5112693;28;19912;-78
2022/06/08 00:42:57;;;;;;;;;;;15.40;99.90;;;;;;5095069;28;20271;-79
2022/06/08 00:45:23;;;;;;;;;;;15.40;99.90;;;;;;5113084;28;19915;-78
2022/06/08 00:48:00;;;;;;;;;;;15.50;99.90;;;;;;5112810;28;20002;-78
2022/06/08 00:50:38;;;;;;;;;;;15.50;99.90;;;;;;5112788;28;19999;-78
2022/06/08 00:53:03;;;;;;;;;;;15.50;99.90;;;;;;5115705;28;19920;-79
2022/06/08 00:55:30;;;;;;;;;;;15.40;99.90;;;;;;5116583;28;19911;-79
2022/06/08 00:58:02;;;;;;;;;;;15.40;99.90;;;;;;5098294;28;19912;-79
2022/06/08 01:00:29;;;;;;;;;;;15.40;99.90;;;;;;5116949;28;19961;-79
2022/06/08 01:02:55;;;;;;;;;;;15.50;99.90;;;;;;5116799;28;20656;-79
2022/06/08 01:05:35;;;;;;;;;;;15.50;99.90;;;;;;5117000;28;19911;-78
2022/06/08 01:08:03;;;;;;;;;;;15.50;99.90;;;;;;5098177;28;19919;-79
2022/06/08 01:10:49;;;;;;;;;;;15.50;99.90;;;;;;5116711;28;19919;-79
2022/06/08 01:13:15;;;;;;;;;;;15.50;99.90;;;;;;5097430;28;20286;-78
2022/06/08 01:15:41;;;;;;;;;;;15.60;99.90;;;;;;5098330;28;19912;-78
2022/06/08 01:18:06;;;;;;;;;;;15.60;99.90;;;;;;5097932;28;19919;-78
2022/06/08 01:20:32;;;;;;;;;;;15.60;99.90;;;;;;5116406;28;19908;-78
2022/06/08 01:22:58;;;;;;;;;;;15.60;99.90;;;;;;5116304;28;19908;-78
2022/06/08 01:25:24;;;;;;;;;;;15.60;99.90;;;;;;5116158;28;19943;-78
2022/06/08 01:28:08;;;;;;;;;;;15.60;99.90;;;;;;5116092;28;19961;-78
2022/06/08 01:30:51;;;;;;;;;;;15.60;99.90;;;;;;5116157;28;19914;-78
2022/06/08 01:33:32;;;;;;;;;;;15.60;99.90;;;;;;5116053;28;19911;-78
2022/06/08 01:36:03;;;;;;;;;;;15.60;99.90;;;;;;5116078;28;19920;-78
2022/06/08 01:38:47;;;;;;;;;;;15.60;99.90;;;;;;5116001;28;19912;-78
2022/06/08 01:41:38;;;;;;;;;;;15.60;99.90;;;;;;5116103;28;19919;-77
2022/06/08 01:44:13;;;;;;;;;;;15.60;99.90;;;;;;5084158;28;19908;-78
2022/06/08 01:46:41;;;;;;;;;;;15.50;99.90;;;;;;5115719;28;19912;-78
2022/06/08 01:49:20;;;;;;;;;;;15.40;99.90;;;;;;5115823;28;20316;-78
2022/06/08 01:51:51;;;;;;;;;;;15.40;99.90;;;;;;5097406;28;19907;-78
2022/06/08 01:54:29;;;;;;;;;;;15.30;99.90;;;;;;5115836;28;20244;-78
2022/06/08 01:57:13;;;;;;;;;;;15.30;99.90;;;;;;5115549;28;19916;-78
2022/06/08 01:59:59;;;;;;;;;;;15.30;99.90;;;;;;5115772;28;20273;-78
2022/06/08 02:02:25;;;;;;;;;;;15.40;99.90;;;;;;5114991;28;19915;-78
2022/06/08 02:04:55;;;;;;;;;;;15.40;99.90;;;;;;5115695;28;19904;-78
2022/06/08 02:07:32;;;;;;;;;;;15.40;99.90;;;;;;5115528;28;19914;-78
2022/06/08 02:10:07;;;;;;;;;;;15.40;99.90;;;;;;5097172;28;19911;-78
2022/06/08 02:12:34;;;;;;;;;;;15.50;99.90;;;;;;5115448;28;20370;-78
2022/06/08 02:15:08;;;;;;;;;;;15.50;99.90;;;;;;5096898;28;20350;-80
2022/06/08 02:17:38;;;;;;;;;;;15.50;99.90;;;;;;5115115;28;19919;-78
2022/06/08 02:20:12;;;;;;;;;;;15.50;99.90;;;;;;5096929;28;20354;-79
2022/06/08 02:22:49;;;;;;;;;;;15.50;99.90;;;;;;5115358;28;20002;-78
2022/06/08 02:25:17;;;;;;;;;;;15.50;99.90;;;;;;5115127;28;19912;-78
2022/06/08 02:28:06;;;;;;;;;;;15.50;99.90;;;;;;5096791;28;19907;-77
2022/06/08 02:30:36;;;;;;;;;;;15.40;99.90;;;;;;5085877;28;20373;-78
2022/06/08 02:35:54;;;;;;;;;;;15.50;99.90;;;;;;5115074;28;19922;-78
2022/06/08 02:38:22;;;;;;;;;;;15.50;99.90;;;;;;5114949;28;20359;-78
2022/06/08 02:40:49;;;;;;;;;;;15.50;99.90;;;;;;5096544;28;20261;-78
2022/06/08 02:43:17;;;;;;;;;;;15.60;99.90;;;;;;5115018;28;19933;-78
2022/06/08 02:45:44;;;;;;;;;;;15.60;99.90;;;;;;5114794;28;20390;-79
2022/06/08 02:48:12;;;;;;;;;;;15.50;99.90;;;;;;5114759;28;19931;-78
2022/06/08 02:50:46;;;;;;;;;;;15.60;99.90;;;;;;5114630;28;19947;-78
2022/06/08 02:53:18;;;;;;;;;;;15.50;99.90;;;;;;5096254;28;19926;-78
2022/06/08 02:55:48;;;;;;;;;;;15.50;99.90;;;;;;5096334;28;19950;-78
2022/06/08 02:58:52;;;;;;;;;;;15.50;99.90;;;;;;5114404;28;19908;-78
2022/06/08 03:01:25;;;;;;;;;;;15.50;99.90;;;;;;5031700;28;19909;-79
2022/06/08 03:03:54;;;;;;;;;;;15.50;99.90;;;;;;5031622;28;19913;-78
2022/06/08 03:06:21;;;;;;;;;;;15.50;99.90;;;;;;5058301;28;19914;-78
2022/06/08 03:08:55;;;;;;;;;;;15.40;99.90;;;;;;5114211;28;19931;-78
2022/06/08 03:11:22;;;;;;;;;;;15.50;99.90;;;;;;5114396;28;19908;-78
2022/06/08 03:13:54;;;;;;;;;;;15.50;99.90;;;;;;5114105;28;19914;-78
2022/06/08 03:16:27;;;;;;;;;;;15.50;99.90;;;;;;5113830;28;20370;-78
2022/06/08 03:18:53;;;;;;;;;;;15.50;99.90;;;;;;5114092;28;20262;-78
2022/06/08 03:21:19;;;;;;;;;;;15.50;99.90;;;;;;5114064;28;19915;-78
2022/06/08 03:23:44;;;;;;;;;;;15.40;99.90;;;;;;5095780;28;20373;-78
2022/06/08 03:26:10;;;;;;;;;;;15.50;99.90;;;;;;5113974;28;19967;-78
2022/06/08 03:28:35;;;;;;;;;;;15.50;99.90;;;;;;5095527;28;19908;-77
2022/06/08 03:31:01;;;;;;;;;;;15.50;99.90;;;;;;5095776;28;19922;-78
2022/06/08 03:33:26;;;;;;;;;;;15.50;99.90;;;;;;5113874;28;19912;-78
2022/06/08 03:35:52;;;;;;;;;;;15.60;99.90;;;;;;5113749;28;19916;-78
2022/06/08 03:38:17;;;;;;;;;;;15.60;99.90;;;;;;5113681;28;20007;-78
2022/06/08 03:40:43;;;;;;;;;;;15.60;99.90;;;;;;5113800;28;20301;-78
2022/06/08 03:43:10;;;;;;;;;;;15.60;99.90;;;;;;5113478;28;19908;-77
2022/06/08 03:45:38;;;;;;;;;;;15.60;99.90;;;;;;5113540;28;19915;-78
2022/06/08 03:48:06;;;;;;;;;;;15.60;99.90;;;;;;5113455;28;20351;-78
2022/06/08 03:50:31;;;;;;;;;;;15.60;99.90;;;;;;5113598;28;19907;-78
2022/06/08 03:52:58;;;;;;;;;;;15.60;99.90;;;;;;5113351;28;19927;-78
2022/06/08 03:55:26;;;;;;;;;;;15.60;99.90;;;;;;5113593;28;19923;-78
2022/06/08 03:57:51;;;;;;;;;;;15.60;99.90;;;;;;5113311;28;19915;-78
2022/06/08 04:00:18;;;;;;;;;;;15.60;99.90;;;;;;5113736;28;19931;-77
2022/06/08 04:02:45;;;;;;;;;;;15.70;99.90;;;;;;5113294;28;19908;-78
2022/06/08 04:05:10;;;;;;;;;;;15.70;99.90;;;;;;5113512;28;19907;-78
2022/06/08 04:07:36;;;;;;;;;;;15.70;99.90;;;;;;5113018;28;19933;-78
2022/06/08 04:10:02;;;;;;;;;;;15.80;99.90;;;;;;5113121;28;19908;-78
2022/06/08 04:12:28;;;;;;;;;;;15.80;99.90;;;;;;5113089;28;20365;-78
2022/06/08 04:14:53;;;;;;;;;;;15.90;99.90;;;;;;5095050;28;19908;-78
2022/06/08 04:17:19;;;;;;;;;;;15.90;99.90;;;;;;5094538;28;20019;-78
2022/06/08 04:19:47;;;;;;;;;;;15.90;99.90;;;;;;5095008;28;19968;-78
2022/06/08 04:22:15;;;;;;;;;;;15.90;99.90;;;;;;5094932;28;19915;-78
2022/06/08 04:24:42;;;;;;;;;;;15.90;99.90;;;;;;5113068;28;19941;-78
2022/06/08 04:27:08;;;;;;;;;;;15.90;99.90;;;;;;5112054;28;19953;-78
2022/06/08 04:29:34;;;;;;;;;;;15.90;99.90;;;;;;5112935;28;20358;-78
2022/06/08 04:32:00;;;;;;;;;;;15.90;99.90;;;;;;5094663;28;19914;-78
2022/06/08 04:34:25;;;;;;;;;;;15.90;99.90;;;;;;5112941;28;19955;-78
2022/06/08 04:36:51;;;;;;;;;;;15.90;99.90;;;;;;5094593;28;20010;-78
2022/06/08 04:39:17;;;;;;;;;;;15.90;99.90;;;;;;5112763;28;20271;-78
2022/06/08 04:41:42;;;;;;;;;;;15.90;99.90;;;;;;5094666;28;20359;-78
2022/06/08 04:44:08;;;;;;;;;;;15.90;99.90;;;;;;5112951;28;19915;-78
2022/06/08 04:46:33;;;;;;;;;;;15.90;99.90;;;;;;5094486;28;20375;-78
2022/06/08 04:48:59;;;;;;;;;;;15.90;99.90;;;;;;5094380;28;20037;-78
2022/06/08 04:51:24;;;;;;;;;;;15.90;99.90;;;;;;5112792;28;19908;-78
2022/06/08 04:53:50;;;;;;;;;;;15.90;99.90;;;;;;5112580;28;20282;-78
2022/06/08 04:56:16;;;;;;;;;;;16.00;99.90;;;;;;5094497;28;19915;-78
2022/06/08 04:58:42;;;;;;;;;;;16.10;99.90;;;;;;5094496;28;19919;-78
2022/06/08 05:01:08;;;;;;;;;;;16.10;99.90;;;;;;5094293;28;20286;-78
2022/06/08 05:03:33;;;;;;;;;;;16.10;99.90;;;;;;5112624;28;19908;-78
2022/06/08 05:05:59;;;;;;;;;;;16.10;99.90;;;;;;5094324;28;20274;-78
2022/06/08 05:08:26;;;;;;;;;;;16.10;99.90;;;;;;5112430;28;19907;-78
2022/06/08 05:10:52;;;;;;;;;;;16.10;99.90;;;;;;5112643;28;19940;-78
2022/06/08 05:13:18;;;;;;;;;;;16.10;99.90;;;;;;5112567;28;20018;-78
2022/06/08 05:15:44;;;;;;;;;;;16.10;99.90;;;;;;5094180;28;19912;-78
2022/06/08 05:18:11;;;;;;;;;;;16.10;99.90;;;;;;5114059;28;19912;-79
2022/06/08 05:20:38;;;;;;;;;;;16.20;99.90;;;;;;5094177;28;19912;-80
2022/06/08 05:23:05;;;;;;;;;;;16.50;99.90;;;;;;5117291;28;19927;-83
2022/06/08 05:25:33;;;;;;;;;;;16.70;99.90;;;;;;5098901;28;19939;-80
2022/06/08 05:27:59;;;;;;;;;;;17.10;99.90;;;;;;5112591;28;19931;-79
2022/06/08 05:30:25;;;;;;;;;;;17.20;99.90;;;;;;5094517;28;19912;-81
2022/06/08 05:32:51;;;;;;;;;;;17.50;99.90;;;;;;5094596;28;19961;-80
2022/06/08 05:35:16;;;;;;;;;;;17.70;99.90;;;;;;5094113;28;19908;-79
2022/06/08 05:37:42;;;;;;;;;;;17.70;99.90;;;;;;5113126;28;19916;-79
2022/06/08 05:40:08;;;;;;;;;;;17.90;99.90;;;;;;5116170;28;19911;-79
2022/06/08 05:42:33;;;;;;;;;;;18.20;99.90;;;;;;5097585;28;19908;-79
2022/06/08 05:44:59;;;;;;;;;;;18.30;99.90;;;;;;5115959;28;19912;-79
2022/06/08 05:47:25;;;;;;;;;;;18.30;99.90;;;;;;5097519;28;19919;-79
2022/06/08 05:49:50;;;;;;;;;;;18.20;99.90;;;;;;5097742;28;19908;-79
2022/06/08 05:52:17;;;;;;;;;;;18.10;99.90;;;;;;5094101;28;20367;-79
2022/06/08 05:54:43;;;;;;;;;;;18.30;99.90;;;;;;5094083;28;19912;-79
2022/06/08 05:57:09;;;;;;;;;;;18.40;99.90;;;;;;5094084;28;19916;-79
2022/06/08 05:59:36;;;;;;;;;;;18.70;99.90;;;;;;5095445;28;19919;-79
2022/06/08 06:02:02;;;;;;;;;;;18.80;99.90;;;;;;5094986;28;19909;-79
2022/06/08 06:04:28;;;;;;;;;;;18.80;99.90;;;;;;5095063;28;19908;-79
2022/06/08 06:06:53;;;;;;;;;;;18.80;99.90;;;;;;5094923;28;19923;-79
2022/06/08 06:09:19;;;;;;;;;;;18.80;99.90;;;;;;5094822;28;20343;-79
2022/06/08 06:11:46;;;;;;;;;;;18.80;99.90;;;;;;5094211;28;20358;-78
2022/06/08 06:14:11;;;;;;;;;;;18.70;99.90;;;;;;5093757;28;19939;-79
2022/06/08 06:16:37;;;;;;;;;;;18.70;99.90;;;;;;5093799;28;20363;-78
2022/06/08 06:19:03;;;;;;;;;;;18.70;99.90;;;;;;5094813;28;19999;-80
2022/06/08 06:21:28;;;;;;;;;;;18.70;99.90;;;;;;5095085;28;19912;-78
2022/06/08 06:23:54;;;;;;;;;;;18.70;99.90;;;;;;5093487;28;19908;-79
2022/06/08 06:26:20;;;;;;;;;;;18.70;99.90;;;;;;5094572;28;19960;-79
2022/06/08 06:28:46;;;;;;;;;;;18.70;99.90;;;;;;5095220;28;19999;-89
2022/06/08 06:31:16;;;;;;;;;;;18.70;99.90;;;;;;5094624;28;20290;-78
2022/06/08 06:33:41;;;;;;;;;;;18.80;99.90;;;;;;5094825;28;19965;-78
2022/06/08 06:36:07;;;;;;;;;;;18.90;99.90;;;;;;5094861;28;20559;-80
2022/06/08 06:38:33;;;;;;;;;;;18.80;99.90;;;;;;5094640;28;20007;-80
2022/06/08 06:40:59;;;;;;;;;;;19.00;99.90;;;;;;5099385;28;20251;-78
2022/06/08 06:43:25;;;;;;;;;;;19.10;99.90;;;;;;5093008;28;19909;-78
2022/06/08 06:45:50;;;;;;;;;;;19.20;99.90;;;;;;5094529;28;20414;-79
2022/06/08 06:48:16;;;;;;;;;;;19.30;99.90;;;;;;5094424;28;19908;-79
2022/06/08 06:50:41;;;;;;;;;;;19.40;99.90;;;;;;5093365;28;19916;-79
2022/06/08 06:53:07;;;;;;;;;;;19.50;99.90;;;;;;5107320;28;19920;-79
2022/06/08 06:55:33;;;;;;;;;;;19.70;99.90;;;;;;5096506;28;19922;-80
2022/06/08 06:57:58;;;;;;;;;;;19.90;99.90;;;;;;5096345;28;19920;-79
2022/06/08 07:00:24;;;;;;;;;;;20.10;99.90;;;;;;5114682;28;19931;-79
2022/06/08 07:02:50;;;;;;;;;;;20.20;99.90;;;;;;5114598;28;20247;-80
2022/06/08 07:05:18;;;;;;;;;;;20.40;99.90;;;;;;5114817;28;19907;-80
2022/06/08 07:07:44;;;;;;;;;;;20.60;99.90;;;;;;5096251;28;19915;-80
2022/06/08 07:10:09;;;;;;;;;;;20.70;99.90;;;;;;5114578;28;20377;-80
2022/06/08 07:12:35;;;;;;;;;;;20.70;99.90;;;;;;5114548;28;19908;-80
2022/06/08 07:15:00;;;;;;;;;;;20.60;99.90;;;;;;5114476;28;19908;-80
2022/06/08 07:17:26;;;;;;;;;;;20.70;99.90;;;;;;5096029;28;19923;-79
2022/06/08 07:19:51;;;;;;;;;;;20.70;99.90;;;;;;5114431;28;19908;-79
2022/06/08 07:22:17;;;;;;;;;;;20.70;99.90;;;;;;5114283;28;19908;-80
2022/06/08 07:24:43;;;;;;;;;;;20.60;99.90;;;;;;5096121;28;19915;-80
2022/06/08 07:27:09;;;;;;;;;;;20.60;99.90;;;;;;5095769;28;19953;-79
2022/06/08 07:29:34;;;;;;;;;;;20.50;99.90;;;;;;5114216;28;19931;-79
2022/06/08 07:32:00;;;;;;;;;;;20.40;99.90;;;;;;5114284;28;19912;-79
2022/06/08 07:34:25;;;;;;;;;;;20.30;99.90;;;;;;5114111;28;19965;-80
2022/06/08 07:36:51;;;;;;;;;;;20.20;99.90;;;;;;5113992;28;19919;-80
2022/06/08 07:39:19;;;;;;;;;;;20.20;99.90;;;;;;5113923;28;20362;-80
2022/06/08 07:41:46;;;;;;;;;;;20.30;99.90;;;;;;5113998;28;20002;-80
2022/06/08 07:44:11;;;;;;;;;;;20.30;99.90;;;;;;5095694;28;19933;-81
2022/06/08 07:46:38;;;;;;;;;;;20.40;99.90;;;;;;5113775;28;19908;-80
2022/06/08 07:51:53;;;;;;;;;;;20.70;99.90;;;;;;5113741;28;19976;-79
2022/06/08 07:54:22;;;;;;;;;;;20.80;99.90;;;;;;5113645;28;19919;-79
2022/06/08 07:56:48;;;;;;;;;;;20.90;99.90;;;;;;5113452;28;19985;-79
2022/06/08 07:59:14;;;;;;;;;;;21.10;99.90;;;;;;5113543;28;20007;-79
2022/06/08 08:01:40;;;;;;;;;;;21.20;99.90;;;;;;5113283;28;19904;-79
2022/06/08 08:04:05;;;;;;;;;;;21.30;99.90;;;;;;5113516;28;19924;-78
2022/06/08 08:06:31;;;;;;;;;;;21.40;99.90;;;;;;5117108;28;19904;-78
2022/06/08 08:08:57;;;;;;;;;;;21.40;99.80;;;;;;5096511;28;20351;-78
2022/06/08 08:11:26;;;;;;;;;;;21.30;99.90;;;;;;5113206;28;19937;-78
2022/06/08 08:13:52;;;;;;;;;;;21.30;99.60;;;;;;5113174;28;19914;-77
2022/06/08 08:16:18;;;;;;;;;;;21.30;97.30;;;;;;5094857;28;20002;-78
2022/06/08 08:18:44;;;;;;;;;;;21.20;97.90;;;;;;5113214;28;19914;-78
2022/06/08 08:21:09;;;;;;;;;;;21.10;98.00;;;;;;5113173;28;19931;-78
2022/06/08 08:23:35;;;;;;;;;;;21.20;97.80;;;;;;5094762;28;19914;-77
2022/06/08 08:26:01;;;;;;;;;;;21.20;97.80;;;;;;5113007;28;19994;-76
2022/06/08 08:28:26;;;;;;;;;;;21.30;98.30;;;;;;5112772;28;20272;-81
2022/06/08 08:30:52;;;;;;;;;;;21.30;98.80;;;;;;5094758;28;19914;-82
2022/06/08 08:33:17;;;;;;;;;;;21.50;98.00;;;;;;5094563;28;19916;-80
2022/06/08 08:35:43;;;;;;;;;;;21.50;98.30;;;;;;5112791;28;20014;-77
2022/06/08 08:38:09;;;;;;;;;;;21.50;98.60;;;;;;5112843;28;19918;-79
2022/06/08 08:40:42;;;;;;;;;;;21.50;99.00;;;;;;5094645;28;19916;-79
2022/06/08 08:43:09;;;;;;;;;;;21.60;97.70;;;;;;5120746;28;19907;-81
2022/06/08 08:45:41;;;;;;;;;;;21.70;96.00;;;;;;5113157;28;19933;-82
2022/06/08 08:48:09;;;;;;;;;;;21.70;96.10;;;;;;5094818;28;19907;-83
2022/06/08 08:50:57;;;;;;;;;;;21.70;96.00;;;;;;5094905;28;19938;-83
2022/06/08 08:53:29;;;;;;;;;;;21.80;96.70;;;;;;5090200;28;19927;-81
2022/06/08 08:56:01;;;;;;;;;;;21.80;94.80;;;;;;5094495;28;19912;-82
2022/06/08 08:58:34;;;;;;;;;;;21.90;95.20;;;;;;5112956;28;19908;-83
2022/06/08 09:01:11;;;;;;;;;;;22.00;95.00;;;;;;5094711;28;20379;-83
2022/06/08 09:03:39;;;;;;;;;;;22.10;94.90;;;;;;5112548;28;19908;-82
2022/06/08 09:06:12;;;;;;;;;;;22.30;96.10;;;;;;5094553;28;20282;-83
2022/06/08 09:08:38;;;;;;;;;;;22.50;95.20;;;;;;5094822;28;20370;-83
2022/06/08 09:11:11;;;;;;;;;;;22.70;94.10;;;;;;5094909;28;20037;-86
2022/06/08 09:13:40;;;;;;;;;;;22.70;95.90;;;;;;5098046;28;19949;-85
2022/06/08 09:16:06;;;;;;;;;;;22.70;94.30;;;;;;5099162;28;19923;-84
2022/06/08 09:18:39;;;;;;;;;;;22.80;92.90;;;;;;5117269;28;19911;-85
2022/06/08 09:21:37;;;;;;;;;;;22.80;91.40;;;;;;5099531;28;19910;-85
2022/06/08 09:24:07;;;;;;;;;;;22.80;89.90;;;;;;5055013;28;19909;-85
2022/06/08 09:26:34;;;;;;;;;;;22.90;88.60;;;;;;5099398;28;19908;-85
2022/06/08 09:29:07;;;;;;;;;;;22.90;87.00;;;;;;5099158;28;19919;-84
2022/06/08 09:31:34;;;;;;;;;;;23.00;90.30;;;;;;5097941;28;19908;-83
2022/06/08 09:34:05;;;;;;;;;;;23.20;89.60;;;;;;5098228;28;19911;-84
2022/06/08 09:36:30;;;;;;;;;;;23.40;89.80;;;;;;5100992;28;19915;-79
2022/06/08 09:38:56;;;;;;;;;;;23.40;87.90;;;;;;5116347;28;19911;-79
2022/06/08 09:41:27;;;;;;;;;;;23.30;88.10;;;;;;5116190;28;19912;-79
2022/06/08 09:44:11;;;;;;;;;;;23.30;85.50;;;;;;5116247;28;19954;-79
2022/06/08 09:52:27;;;;;;;;;;;23.50;89.50;;;;;;5116023;28;19923;-78
2022/06/08 09:55:03;;;;;;;;;;;23.60;85.50;;;;;;5116193;28;20369;-78
2022/06/08 09:57:38;;;;;;;;;;;23.60;88.50;;;;;;5115882;28;20014;-77
2022/06/08 10:00:09;;;;;;;;;;;23.60;88.20;;;;;;5115980;28;19912;-76
2022/06/08 10:02:44;;;;;;;;;;;23.50;88.70;;;;;;5115823;28;20305;-75
2022/06/08 10:05:16;;;;;;;;;;;23.30;88.70;;;;;;5115767;28;19912;-76
2022/06/08 10:08:00;;;;;;;;;;;23.30;90.90;;;;;;5115496;28;20002;-75
2022/06/08 10:10:27;;;;;;;;;;;23.20;90.30;;;;;;5115161;28;20266;-75
2022/06/08 10:12:58;;;;;;;;;;;23.20;91.30;;;;;;5115421;28;19910;-77
2022/06/08 10:15:39;;;;;;;;;;;23.10;91.80;;;;;;5115123;28;20370;-77
2022/06/08 10:18:24;;;;;;;;;;;23.10;92.10;;;;;;5096765;28;19922;-78
2022/06/08 10:20:51;;;;;;;;;;;23.10;91.60;;;;;;5115602;28;19912;-78
2022/06/08 10:23:24;;;;;;;;;;;23.10;91.60;;;;;;5115287;28;19943;-78
2022/06/08 10:25:53;;;;;;;;;;;23.10;91.60;;;;;;5115442;28;19919;-78
2022/06/08 10:28:22;;;;;;;;;;;23.10;92.00;;;;;;5096920;28;19926;-78
2022/06/08 10:30:51;;;;;;;;;;;23.20;91.10;;;;;;5115159;28;20407;-78
2022/06/08 10:33:20;;;;;;;;;;;23.20;90.30;;;;;;5115131;28;20007;-78
2022/06/08 10:35:47;;;;;;;;;;;23.20;90.90;;;;;;5115118;28;19950;-78
2022/06/08 10:38:18;;;;;;;;;;;23.20;91.50;;;;;;5114914;28;20022;-77
2022/06/08 10:40:59;;;;;;;;;;;23.20;90.70;;;;;;5115134;28;19912;-78
2022/06/08 10:43:27;;;;;;;;;;;23.20;90.60;;;;;;5114908;28;20371;-78
2022/06/08 10:45:55;;;;;;;;;;;23.30;89.30;;;;;;5114683;28;20305;-78
2022/06/08 10:48:25;;;;;;;;;;;23.10;90.40;;;;;;5114904;28;19941;-77
2022/06/08 10:51:09;;;;;;;;;;;23.10;90.10;;;;;;5115219;28;19918;-77
2022/06/08 10:56:34;;;;;;;;;;;23.20;90.30;;;;;;5114685;28;19923;-78
2022/06/08 10:59:06;;;;;;;;;;;23.20;90.60;;;;;;5114877;28;19915;-78
2022/06/08 11:01:49;;;;;;;;;;;23.20;90.80;;;;;;5096342;28;19996;-79
2022/06/08 11:04:27;;;;;;;;;;;23.30;92.70;;;;;;5114707;28;19908;-78
2022/06/08 11:06:59;;;;;;;;;;;23.40;92.10;;;;;;5114700;28;19908;-80
2022/06/08 11:09:33;;;;;;;;;;;23.40;90.80;;;;;;5096104;28;19907;-79
2022/06/08 11:12:11;;;;;;;;;;;23.40;90.90;;;;;;5114234;28;19904;-80
2022/06/08 11:14:42;;;;;;;;;;;23.50;89.70;;;;;;5096012;28;19919;-79
2022/06/08 11:17:09;;;;;;;;;;;23.50;90.80;;;;;;5114075;28;20002;-80
2022/06/08 11:19:36;;;;;;;;;;;23.50;90.50;;;;;;5114278;28;19908;-81
2022/06/08 11:22:05;;;;;;;;;;;23.50;89.80;;;;;;5095753;28;19912;-80
2022/06/08 11:24:38;;;;;;;;;;;23.50;90.10;;;;;;5114216;28;19907;-79
2022/06/08 11:27:10;;;;;;;;;;;23.50;90.30;;;;;;5114064;28;19908;-79
2022/06/08 11:29:38;;;;;;;;;;;23.40;89.10;;;;;;5114261;28;20428;-80
2022/06/08 11:32:04;;;;;;;;;;;23.30;89.20;;;;;;5113811;28;19908;-80
2022/06/08 11:34:36;;;;;;;;;;;23.00;90.40;;;;;;5114107;28;20262;-81
2022/06/08 11:37:01;;;;;;;;;;;23.00;91.30;;;;;;5113181;28;20377;-80
2022/06/08 11:39:33;;;;;;;;;;;23.10;91.50;;;;;;5113830;28;19943;-79
2022/06/08 11:42:15;;;;;;;;;;;23.20;92.40;;;;;;5113645;28;19919;-79
2022/06/08 11:44:43;;;;;;;;;;;23.30;91.00;;;;;;5113734;28;20014;-80
2022/06/08 11:47:11;;;;;;;;;;;23.30;90.90;;;;;;5095328;28;19911;-80
2022/06/08 11:49:44;;;;;;;;;;;23.40;92.00;;;;;;5095643;28;20263;-78
2022/06/08 11:52:17;;;;;;;;;;;23.40;91.50;;;;;;5113332;28;20287;-79
2022/06/08 11:54:43;;;;;;;;;;;23.20;90.60;;;;;;5095589;28;20742;-79
2022/06/08 11:57:18;;;;;;;;;;;23.10;91.70;;;;;;5113694;28;20006;-78
2022/06/08 11:59:45;;;;;;;;;;;23.10;92.10;;;;;;5113713;28;19990;-78
2022/06/08 12:02:21;;;;;;;;;;;23.10;91.90;;;;;;5113269;28;20377;-78
2022/06/08 12:04:49;;;;;;;;;;;22.90;93.80;;;;;;5113301;28;19912;-79
2022/06/08 12:07:43;;;;;;;;;;;22.80;93.70;;;;;;5113392;28;19912;-78
2022/06/08 12:10:11;;;;;;;;;;;22.90;94.00;;;;;;5095286;28;19912;-78
2022/06/08 12:12:37;;;;;;;;;;;22.80;93.70;;;;;;5113021;28;20003;-78
2022/06/08 12:15:25;;;;;;;;;;;22.90;94.70;;;;;;5112926;28;19947;-78
2022/06/08 12:17:51;;;;;;;;;;;23.00;94.30;;;;;;5074226;28;19916;-78
2022/06/08 12:20:32;;;;;;;;;;;23.10;92.70;;;;;;5113263;28;19960;-78
2022/06/08 12:23:00;;;;;;;;;;;22.90;92.90;;;;;;5113018;28;19911;-77
2022/06/08 12:25:27;;;;;;;;;;;23.00;93.70;;;;;;5113184;28;20278;-77
2022/06/08 12:27:53;;;;;;;;;;;23.20;93.70;;;;;;5094722;28;19956;-78
2022/06/08 12:30:21;;;;;;;;;;;23.40;93.20;;;;;;5113168;28;19907;-78
2022/06/08 12:32:54;;;;;;;;;;;23.50;91.70;;;;;;5112990;28;19911;-78
2022/06/08 12:35:23;;;;;;;;;;;23.50;92.00;;;;;;5112588;28;19915;-78
2022/06/08 12:37:50;;;;;;;;;;;23.60;91.60;;;;;;5112547;28;20391;-78
2022/06/08 12:40:15;;;;;;;;;;;23.80;90.60;;;;;;5112450;28;20010;-78
2022/06/08 12:42:47;;;;;;;;;;;23.80;91.10;;;;;;5112993;28;20009;-77
2022/06/08 12:45:24;;;;;;;;;;;23.80;90.40;;;;;;5094614;28;19907;-77
2022/06/08 12:47:50;;;;;;;;;;;23.90;90.70;;;;;;5114013;28;19907;-78
2022/06/08 12:50:20;;;;;;;;;;;24.10;90.40;;;;;;5117253;28;20366;-78
2022/06/08 12:52:46;;;;;;;;;;;24.20;87.00;;;;;;5117051;28;20348;-78
2022/06/08 12:55:17;;;;;;;;;;;24.30;87.40;;;;;;5116803;28;19912;-78
2022/06/08 12:57:44;;;;;;;;;;;24.30;85.30;;;;;;5116370;28;19919;-78
2022/06/08 13:00:23;;;;;;;;;;;24.20;85.40;;;;;;5116912;28;19908;-77
2022/06/08 13:02:52;;;;;;;;;;;24.20;85.60;;;;;;5117133;28;19999;-77
2022/06/08 13:05:18;;;;;;;;;;;24.30;87.40;;;;;;5116801;28;19912;-78
2022/06/08 13:07:43;;;;;;;;;;;24.30;82.40;;;;;;5116564;28;19956;-78
2022/06/08 13:10:09;;;;;;;;;;;24.20;83.30;;;;;;5116716;28;20262;-78
2022/06/08 13:12:37;;;;;;;;;;;24.30;81.90;;;;;;5116735;28;19911;-79
2022/06/08 13:15:03;;;;;;;;;;;24.40;81.20;;;;;;5116450;28;19912;-76
2022/06/08 13:17:30;;;;;;;;;;;24.50;81.90;;;;;;5116298;28;19972;-77
2022/06/08 13:19:57;;;;;;;;;;;24.60;82.00;;;;;;5116549;28;20344;-76
2022/06/08 13:22:25;;;;;;;;;;;24.60;83.10;;;;;;5116427;28;19912;-77
2022/06/08 13:24:50;;;;;;;;;;;24.50;82.10;;;;;;5116074;28;19908;-76
2022/06/08 13:27:16;;;;;;;;;;;24.70;83.10;;;;;;5116556;28;19933;-75
2022/06/08 13:29:42;;;;;;;;;;;24.70;80.20;;;;;;5116372;28;20361;-78
2022/06/08 13:32:18;;;;;;;;;;;24.90;80.20;;;;;;5116351;28;19943;-76
2022/06/08 13:34:44;;;;;;;;;;;24.90;80.60;;;;;;5116235;28;19957;-76
2022/06/08 13:37:20;;;;;;;;;;;24.70;82.50;;;;;;5116010;28;19920;-77
2022/06/08 13:39:47;;;;;;;;;;;24.70;82.90;;;;;;5098142;28;20308;-76
2022/06/08 13:42:14;;;;;;;;;;;24.70;83.00;;;;;;5115992;28;20312;-76
2022/06/08 13:44:41;;;;;;;;;;;24.70;80.20;;;;;;5116120;28;19916;-77
2022/06/08 13:47:10;;;;;;;;;;;24.80;79.20;;;;;;5116150;28;19995;-76
2022/06/08 13:49:37;;;;;;;;;;;24.90;79.40;;;;;;5115908;28;19907;-76
2022/06/08 13:52:04;;;;;;;;;;;24.80;78.20;;;;;;5115809;28;20294;-76
2022/06/08 13:54:37;;;;;;;;;;;24.70;78.90;;;;;;5116139;28;20010;-77
2022/06/08 13:57:03;;;;;;;;;;;24.60;78.80;;;;;;5115746;28;19920;-75
2022/06/08 13:59:29;;;;;;;;;;;24.60;79.00;;;;;;5115325;28;19965;-76
2022/06/08 14:01:56;;;;;;;;;;;24.60;78.40;;;;;;5116108;28;19963;-77
2022/06/08 14:04:24;;;;;;;;;;;24.60;79.10;;;;;;5115840;28;19907;-77
2022/06/08 14:15:12;;;;;;;;;;;25.30;80.30;;;;;;5115670;28;20492;-76
2022/06/08 14:17:38;;;;;;;;;;;25.50;76.60;;;;;;5115269;28;19968;-76
2022/06/08 14:20:05;;;;;;;;;;;25.30;74.00;;;;;;5115522;28;19912;-78
2022/06/08 14:22:34;;;;;;;;;;;25.20;74.50;;;;;;5115322;28;19998;-77
2022/06/08 14:25:04;;;;;;;;;;;25.00;71.90;;;;;;5115404;28;19908;-77
2022/06/08 14:27:34;;;;;;;;;;;25.00;73.10;;;;;;5115139;28;19907;-77
2022/06/08 14:30:01;;;;;;;;;;;25.00;73.00;;;;;;5115707;28;19908;-78
2022/06/08 14:32:33;;;;;;;;;;;25.00;74.30;;;;;;5098058;28;19923;-78
2022/06/08 14:34:59;;;;;;;;;;;25.10;74.00;;;;;;5115431;28;20051;-77
2022/06/08 14:37:25;;;;;;;;;;;25.30;71.90;;;;;;5114921;28;19951;-77
2022/06/08 14:39:50;;;;;;;;;;;25.40;70.80;;;;;;5115083;28;19908;-76
2022/06/08 14:42:16;;;;;;;;;;;25.50;70.00;;;;;;5096813;28;20386;-76
2022/06/08 14:44:42;;;;;;;;;;;25.60;69.40;;;;;;5114962;28;19912;-76
2022/06/08 14:47:13;;;;;;;;;;;25.50;68.10;;;;;;5096694;28;20011;-76
2022/06/08 14:49:39;;;;;;;;;;;25.50;68.50;;;;;;5114821;28;19922;-77